Terminal Aerodrome Forecast
Issued by NWS Louisville, KY

Home | Current Version | Previous Version | Text Only | Print | Product List | Glossary On
Versions: 1 2 3 4 5 6 7 8 9 10 11 12 13 14 15 16 17
000
FTUS43 KLMK 300500
TAFLEX
TAF
KLEX 300525Z 3006/3106 30008KT P6SM VCSH SCT014 BKN025
     FM300800 30010KT 6SM -SHSN BR BKN015
     FM301400 32009KT P6SM VCSH SCT015 BKN025
     FM301900 33010KT P6SM SCT035
     FM310100 04003KT P6SM SCT250=

USA.gov is the U.S. government's official web portal to all federal, state and local government web resources and services.